Time;durP1;ratioP1;P1;durP2;ratioP2;P2;SDS_P1;SDS_P2;PMS_P1;PMS_P2;Temp;Humidity;BMP_temperature;BMP_pressure;BME280_temperature;BME280_humidity;BME280_pressure;Samples;Min_cycle;Max_cycle;Signal;HPM_P1;HPM_P2
2022/10/12 00:05:08;;;;;;;12.77;3.33;;;;;;;9.86;100.00;101077.47;20486807;29;20074;-79
2022/10/12 00:15:09;;;;;;;12.85;3.03;;;;;;;9.65;100.00;101071.41;20495330;28;20118;-78
2022/10/12 00:25:10;;;;;;;11.95;2.63;;;;;;;9.40;100.00;101073.16;20511327;28;20095;-78
2022/10/12 00:35:12;;;;;;;12.80;3.15;;;;;;;9.26;100.00;101074.91;20528418;29;20059;-80
2022/10/12 00:45:13;;;;;;;14.10;3.38;;;;;;;9.30;100.00;101076.66;20529143;28;20051;-78
2022/10/12 00:55:14;;;;;;;15.27;3.50;;;;;;;9.35;100.00;101069.69;20530213;28;20079;-79
2022/10/12 01:05:16;;;;;;;11.05;3.05;;;;;;;9.37;100.00;101073.16;20531249;28;20051;-79
2022/10/12 01:15:17;;;;;;;13.10;3.08;;;;;;;9.33;100.00;101071.41;20516334;28;20170;-80
2022/10/12 01:25:18;;;;;;;9.18;2.70;;;;;;;9.04;100.00;101073.13;20525606;28;20051;-78
2022/10/12 01:35:20;;;;;;;13.35;3.33;;;;;;;8.91;100.00;101078.34;20569899;28;20050;-79
2022/10/12 01:45:21;;;;;;;15.65;3.90;;;;;;;8.85;100.00;101077.47;20574060;28;20054;-79
2022/10/12 01:55:23;;;;;;;12.60;3.50;;;;;;;8.74;100.00;101070.47;20571734;28;20054;-79
2022/10/12 02:05:24;;;;;;;13.20;3.15;;;;;;;8.68;100.00;101066.97;20573071;28;20097;-79
2022/10/12 02:15:25;;;;;;;12.73;3.08;;;;;;;8.52;100.00;101062.56;20591874;28;20055;-79
2022/10/12 02:25:27;;;;;;;12.00;3.03;;;;;;;8.49;100.00;101053.00;20573448;28;20066;-79
2022/10/12 02:35:28;;;;;;;15.30;3.35;;;;;;;8.62;100.00;101052.16;20502815;28;20063;-79
2022/10/12 02:45:29;;;;;;;10.07;3.47;;;;;;;8.79;100.00;101046.97;20492463;29;20106;-79
2022/10/12 02:55:31;;;;;;;16.98;3.72;;;;;;;8.86;100.00;101045.25;20515674;29;20052;-78
2022/10/12 03:05:32;;;;;;;15.82;3.20;;;;;;;8.71;100.00;101033.03;20490082;29;20086;-79
2022/10/12 03:15:33;;;;;;;9.65;3.10;;;;;;;8.66;100.00;101034.75;20506801;29;20050;-78
2022/10/12 03:25:35;;;;;;;11.68;3.50;;;;;;;8.52;100.00;101039.06;20505083;29;20050;-79
2022/10/12 03:35:36;;;;;;;9.77;2.95;;;;;;;8.38;100.00;101045.13;20573227;28;20496;-79
2022/10/12 03:45:38;;;;;;;12.75;3.22;;;;;;;8.22;100.00;101045.91;20567069;28;20110;-79
2022/10/12 03:55:39;;;;;;;16.63;3.03;;;;;;;8.27;100.00;101058.97;20564916;28;20047;-78
2022/10/12 04:05:40;;;;;;;14.27;3.80;;;;;;;8.35;100.00;101049.44;20581244;28;20098;-79
2022/10/12 04:15:42;;;;;;;14.02;3.70;;;;;;;8.23;100.00;101051.13;20564633;28;20051;-79
2022/10/12 04:25:43;;;;;;;11.45;3.42;;;;;;;8.19;100.00;101053.69;20565312;28;20050;-79
2022/10/12 04:35:44;;;;;;;10.77;3.30;;;;;;;8.25;100.00;101058.97;20563338;28;20539;-79
2022/10/12 04:45:46;;;;;;;15.15;3.58;;;;;;;8.27;100.00;101067.66;20581762;28;20097;-79
2022/10/12 04:55:47;;;;;;;13.68;3.50;;;;;;;8.33;100.00;101062.47;20567187;28;20356;-78
2022/10/12 05:05:48;;;;;;;15.27;3.63;;;;;;;8.36;100.00;101072.97;20596405;28;20103;-79
2022/10/12 05:15:50;;;;;;;19.25;4.30;;;;;;;8.39;100.00;101062.53;20587888;28;20058;-78
2022/10/12 05:25:51;;;;;;;13.50;3.40;;;;;;;8.40;100.00;101066.88;20597887;28;20047;-77
2022/10/12 05:35:52;;;;;;;10.20;3.72;;;;;;;8.37;100.00;101059.03;20589129;28;20058;-78
2022/10/12 05:45:56;;;;;;;16.77;4.40;;;;;;;8.35;100.00;101067.72;20590072;28;20078;-79
2022/10/12 05:55:58;;;;;;;16.70;4.35;;;;;;;8.22;100.00;101077.22;20573316;28;20055;-78
2022/10/12 06:05:59;;;;;;;14.10;3.92;;;;;;;8.31;100.00;101079.88;20572952;28;20467;-78
2022/10/12 06:16:00;;;;;;;14.55;4.50;;;;;;;8.44;100.00;101081.69;20587384;28;20059;-78
2022/10/12 06:26:02;;;;;;;14.65;4.15;;;;;;;8.67;100.00;101078.28;20586993;28;20050;-78
2022/10/12 06:36:03;;;;;;;11.38;3.70;;;;;;;8.93;100.00;101091.41;20584508;28;20415;-78
2022/10/12 06:46:04;;;;;;;12.98;4.10;;;;;;;9.17;100.00;101096.66;20567946;28;20054;-77
2022/10/12 06:56:06;;;;;;;15.57;4.75;;;;;;;9.39;100.00;101092.34;20584441;28;20483;-77
2022/10/12 07:06:07;;;;;;;15.23;5.68;;;;;;;9.67;100.00;101102.78;20546713;28;20051;-79
2022/10/12 07:16:09;;;;;;;19.17;4.65;;;;;;;9.62;100.00;101112.34;20501670;28;20583;-78
2022/10/12 07:26:10;;;;;;;14.45;5.10;;;;;;;9.95;100.00;101117.56;20500608;28;20117;-77
2022/10/12 07:36:11;;;;;;;18.48;5.35;;;;;;;10.24;100.00;101100.94;20497327;28;20163;-77
2022/10/12 07:46:15;;;;;;;12.65;4.80;;;;;;;10.31;100.00;101096.59;20500343;28;20071;-78
2022/10/12 07:56:16;;;;;;;17.60;6.18;;;;;;;10.47;100.00;101091.28;20480514;28;20054;-77
2022/10/12 08:06:17;;;;;;;14.57;5.80;;;;;;;10.50;100.00;101099.13;20498457;28;20043;-77
2022/10/12 08:16:19;;;;;;;20.77;6.05;;;;;;;10.81;100.00;101109.44;20480762;28;20500;-78
2022/10/12 08:26:20;;;;;;;16.20;5.60;;;;;;;11.07;100.00;101111.03;20499746;29;20054;-78
2022/10/12 08:36:21;;;;;;;18.75;5.85;;;;;;;11.30;100.00;101104.75;20505282;28;20044;-78
2022/10/12 08:46:23;;;;;;;28.55;9.80;;;;;;;11.55;100.00;101097.56;20516163;28;20094;-77
2022/10/12 08:56:24;;;;;;;18.20;8.18;;;;;;;11.62;100.00;101108.00;20516388;28;20047;-78
2022/10/12 09:06:26;;;;;;;23.05;9.05;;;;;;;12.05;100.00;101105.88;20514092;28;20551;-79
2022/10/12 09:16:27;;;;;;;31.38;8.70;;;;;;;12.14;100.00;101104.91;20511402;28;20082;-78
2022/10/12 09:26:28;;;;;;;18.67;8.65;;;;;;;12.21;100.00;101099.56;20475419;28;20146;-78
2022/10/12 09:36:30;;;;;;;22.45;9.07;;;;;;;12.14;100.00;101099.66;20579320;28;20129;-77
2022/10/12 09:46:31;;;;;;;39.10;10.52;;;;;;;12.55;100.00;101107.03;20588935;28;20062;-79
2022/10/12 09:56:33;;;;;;;24.00;9.20;;;;;;;12.77;100.00;101099.75;20590086;28;20047;-79
2022/10/12 10:06:34;;;;;;;20.02;8.68;;;;;;;12.96;100.00;101090.72;20587212;28;20051;-79
2022/10/12 10:16:36;;;;;;;19.90;8.48;;;;;;;13.13;100.00;101090.50;20588123;28;20054;-78
2022/10/12 10:26:37;;;;;;;18.80;8.73;;;;;;;13.28;100.00;101086.78;20587383;28;20121;-78
2022/10/12 10:36:38;;;;;;;19.17;8.15;;;;;;;13.47;100.00;101077.69;20586271;28;20409;-78
2022/10/12 10:46:40;;;;;;;15.10;8.48;;;;;;;13.55;100.00;101086.31;20568669;28;20043;-79
2022/10/12 10:56:41;;;;;;;18.17;7.35;;;;;;;14.04;100.00;101068.78;20585490;28;20097;-78
2022/10/12 11:06:42;;;;;;;22.38;9.00;;;;;;;14.40;100.00;101056.63;20585963;28;20077;-77
2022/10/12 11:16:44;;;;;;;17.73;9.00;;;;;;;14.43;100.00;101053.94;20584178;28;20050;-78
2022/10/12 11:26:45;;;;;;;18.23;7.93;;;;;;;14.65;100.00;101038.53;20561525;23;20051;-74
2022/10/12 11:36:46;;;;;;;20.15;8.85;;;;;;;14.94;100.00;101024.69;20575869;28;20051;-71
2022/10/12 11:47:09;;;;;;;15.35;8.43;;;;;;;15.11;100.00;101009.34;20577302;28;20475;-71
2022/10/12 11:57:10;;;;;;;25.20;9.70;;;;;;;15.34;100.00;101003.50;20576641;28;20082;-71
2022/10/12 12:07:11;;;;;;;20.90;9.30;;;;;;;15.42;100.00;100992.72;20575353;28;20046;-72
2022/10/12 12:17:13;;;;;;;19.00;9.68;;;;;;;15.58;100.00;100975.59;20575921;28;20105;-74
2022/10/12 12:27:14;;;;;;;17.67;7.97;;;;;;;15.75;100.00;100961.06;20504182;28;20460;-74
2022/10/12 12:37:15;;;;;;;21.75;8.65;;;;;;;15.72;100.00;100945.34;20573525;28;20558;-75
2022/10/12 12:47:17;;;;;;;16.73;8.73;;;;;;;15.81;100.00;100935.38;20574146;28;20126;-75
2022/10/12 12:57:38;;;;;;;21.90;8.35;;;;;;;16.04;100.00;100926.75;20576780;28;20491;-76
2022/10/12 13:07:40;;;;;;;13.93;6.75;;;;;;;16.25;100.00;100930.53;20572661;28;20081;-76
2022/10/12 13:17:41;;;;;;;16.70;7.22;;;;;;;16.30;100.00;100928.63;20515875;28;20055;-76
2022/10/12 13:27:43;;;;;;;15.80;7.35;;;;;;;16.79;98.12;100923.59;20506841;28;20047;-76
2022/10/12 13:37:44;;;;;;;14.52;6.97;;;;;;;16.62;100.00;100911.75;20584539;28;20463;-76
2022/10/12 13:47:45;;;;;;;17.55;7.25;;;;;;;16.64;97.41;100915.19;20584479;28;20104;-76
2022/10/12 13:57:48;;;;;;;16.27;6.47;;;;;;;16.59;99.75;100908.34;20583082;28;20510;-73
2022/10/12 14:07:50;;;;;;;16.92;6.75;;;;;;;16.66;99.38;100915.13;20587309;28;20132;-78
2022/10/12 14:17:51;;;;;;;18.05;7.68;;;;;;;16.99;97.41;100901.75;20555960;28;20130;-76
2022/10/12 14:27:53;;;;;;;16.65;7.82;;;;;;;16.96;96.58;100900.09;20501468;28;20094;-76
2022/10/12 14:37:54;;;;;;;15.90;7.63;;;;;;;16.76;96.99;100906.03;20501084;28;20100;-75
2022/10/12 14:47:56;;;;;;;15.70;7.10;;;;;;;16.79;96.95;100899.78;20498806;29;20102;-75
2022/10/12 14:57:57;;;;;;;19.83;8.13;;;;;;;16.97;97.48;100898.31;20498714;29;20051;-75
2022/10/12 15:07:58;;;;;;;17.85;6.93;;;;;;;16.98;95.54;100892.94;20497230;29;20063;-75
2022/10/12 15:18:00;;;;;;;16.55;7.43;;;;;;;16.92;97.33;100887.88;20497147;29;20464;-75
2022/10/12 15:28:01;;;;;;;12.60;6.60;;;;;;;16.70;97.69;100886.81;20503087;28;20090;-77
2022/10/12 15:38:02;;;;;;;13.38;6.15;;;;;;;16.66;97.53;100878.97;20575061;28;20424;-75
2022/10/12 15:48:04;;;;;;;16.40;7.63;;;;;;;16.59;98.52;100871.31;20573267;28;20055;-74
2022/10/12 15:58:06;;;;;;;16.45;7.05;;;;;;;16.48;100.00;100876.97;20573813;28;20054;-75
2022/10/12 16:08:07;;;;;;;16.63;6.97;;;;;;;16.10;100.00;100865.84;20590398;23;20829;-72
2022/10/12 16:18:08;;;;;;;18.98;8.05;;;;;;;15.76;100.00;100850.16;20420277;29;20122;-70
2022/10/12 16:28:10;;;;;;;12.15;7.03;;;;;;;15.46;100.00;100854.50;20484220;29;20102;-70
2022/10/12 16:38:13;;;;;;;20.30;8.05;;;;;;;15.16;100.00;100860.66;20484811;28;20043;-70
2022/10/12 16:48:14;;;;;;;16.23;8.10;;;;;;;14.65;100.00;100876.91;20485792;28;20492;-70
2022/10/12 16:58:16;;;;;;;14.50;8.15;;;;;;;14.19;100.00;100884.13;20491074;28;20165;-69
2022/10/12 17:08:18;;;;;;;23.08;13.65;;;;;;;14.00;100.00;100869.63;20497974;28;20059;-68
2022/10/12 17:18:19;;;;;;;22.75;11.25;;;;;;;13.71;100.00;100878.16;20428828;29;20059;-69
2022/10/12 17:28:20;;;;;;;22.60;10.73;;;;;;;13.46;100.00;100883.94;20429003;29;20463;-68
2022/10/12 17:38:22;;;;;;;19.80;9.68;;;;;;;13.24;100.00;100899.25;20464266;28;20043;-68
2022/10/12 17:48:23;;;;;;;19.13;8.77;;;;;;;13.07;100.00;100890.75;20449427;28;20055;-68
2022/10/12 17:58:25;;;;;;;24.88;10.90;;;;;;;12.87;100.00;100890.25;20464074;28;20059;-69
2022/10/12 18:08:26;;;;;;;22.08;10.55;;;;;;;12.67;100.00;100901.09;20493362;28;20567;-68
2022/10/12 18:18:27;;;;;;;22.52;10.82;;;;;;;12.50;100.00;100903.97;20494032;28;20110;-69
2022/10/12 18:28:29;;;;;;;23.65;10.55;;;;;;;12.35;100.00;100899.84;20492534;29;20496;-69
2022/10/12 18:38:30;;;;;;;16.92;10.00;;;;;;;12.26;100.00;100921.88;20491777;28;20559;-69
2022/10/12 18:48:32;;;;;;;19.13;11.02;;;;;;;12.13;100.00;100911.56;20490295;28;20051;-68
2022/10/12 18:58:33;;;;;;;24.55;12.93;;;;;;;11.87;100.00;100918.00;20490881;28;20114;-69
2022/10/12 19:08:35;;;;;;;24.55;13.85;;;;;;;11.74;100.00;100908.53;20488524;28;20492;-70
2022/10/12 19:18:37;;;;;;;18.10;11.40;;;;;;;11.71;100.00;100908.56;20488352;28;20059;-69
2022/10/12 19:28:38;;;;;;;30.52;13.40;;;;;;;11.62;100.00;100906.03;20488295;28;20442;-69
2022/10/12 19:38:39;;;;;;;22.02;13.02;;;;;;;11.44;100.00;100918.47;20489100;28;20504;-70
2022/10/12 19:48:42;;;;;;;21.75;13.23;;;;;;;11.35;100.00;100912.47;20487509;28;20420;-74
2022/10/12 19:58:43;;;;;;;28.40;13.82;;;;;;;11.31;100.00;100901.16;20488569;28;20055;-73
2022/10/12 20:08:45;;;;;;;22.42;13.05;;;;;;;11.19;100.00;100898.66;20487451;28;20047;-73
2022/10/12 20:18:46;;;;;;;29.52;14.07;;;;;;;11.03;100.00;100908.44;20487018;29;20055;-74
2022/10/12 20:28:48;;;;;;;21.67;12.75;;;;;;;10.90;100.00;100905.03;20486470;28;20591;-74
2022/10/12 20:38:49;;;;;;;21.88;12.52;;;;;;;10.78;100.00;100920.88;20502598;28;20043;-73
2022/10/12 20:48:50;;;;;;;27.77;14.45;;;;;;;10.81;100.00;100919.97;20502447;28;20051;-73
2022/10/12 20:58:58;;;;;;;25.73;13.35;;;;;;;10.71;100.00;100909.56;20502698;28;20437;-72
2022/10/12 21:08:59;;;;;;;22.35;11.68;;;;;;;10.52;100.00;100905.34;20500605;28;20051;-72
2022/10/12 21:19:01;;;;;;;31.85;14.05;;;;;;;10.44;100.00;100899.28;20500646;28;20055;-73
2022/10/12 21:29:02;;;;;;;26.88;13.55;;;;;;;10.32;100.00;100912.47;20500875;28;20114;-74
2022/10/12 21:39:03;;;;;;;24.13;12.32;;;;;;;10.19;100.00;100911.66;20498497;28;20055;-73
2022/10/12 21:49:06;;;;;;;21.00;11.77;;;;;;;10.06;100.00;100904.75;20497797;28;20420;-73
2022/10/12 21:59:08;;;;;;;29.95;12.55;;;;;;;10.02;100.00;100927.44;20498780;28;20098;-73
2022/10/12 22:09:09;;;;;;;20.88;11.35;;;;;;;9.93;100.00;100922.25;20520711;23;20059;-77
2022/10/12 22:19:13;;;;;;;20.80;11.18;;;;;;;9.82;100.00;100924.03;20497557;28;20047;-79
2022/10/12 22:29:14;;;;;;;20.70;10.95;;;;;;;9.76;100.00;100914.47;20508935;28;20051;-76
2022/10/12 22:39:16;;;;;;;18.38;10.75;;;;;;;9.73;100.00;100906.66;20586073;28;20070;-77
2022/10/12 22:49:17;;;;;;;23.02;12.20;;;;;;;9.66;100.00;100903.19;20584973;28;20361;-77
2022/10/12 22:59:19;;;;;;;22.45;11.15;;;;;;;9.63;100.00;100902.31;20583827;28;20078;-77
2022/10/12 23:09:20;;;;;;;18.83;10.75;;;;;;;9.56;100.00;100916.31;20565895;28;20094;-77
2022/10/12 23:19:22;;;;;;;22.35;10.93;;;;;;;9.58;100.00;100914.53;20584728;28;20058;-77
2022/10/12 23:29:23;;;;;;;23.60;12.38;;;;;;;9.85;100.00;100919.66;20583081;28;20055;-77
2022/10/12 23:39:24;;;;;;;23.25;11.18;;;;;;;10.03;100.00;100913.50;20532426;23;20059;-76
2022/10/12 23:49:26;;;;;;;19.42;11.63;;;;;;;9.90;100.00;100901.34;20497044;28;20055;-76
2022/10/12 23:59:27;;;;;;;22.27;10.65;;;;;;;9.74;100.00;100897.94;20496767;28;20114;-75
